Terminal Aerodrome Forecast
Issued by NWS

Home | Current Version | Previous Version | Text Only | Print | Product List | Glossary On
Versions: 1 2 3 4 5 6 7 8 9 10 11 12 13 14 15 16 17 18 19 20 21 22 23 24 25 26 27 28 29 30 31 32 33 34 35 36 37 38 39 40 41 42 43 44 45 46
000
FTUS43 KDMX 230653 AAA
TAFFOD
TAF AMD
KFOD 230653Z 2307/2406 20006KT 4SM -FZRASN BR OVC005
      TEMPO 2307/2308 2SM -SN BR SCT005 OVC016
     FM230800 20005KT P6SM OVC005
     FM231000 25005KT P6SM BKN006
     FM231500 28006KT P6SM BKN040
     FM231600 29008KT P6SM BKN024
     FM232000 31007KT P6SM SCT016 BKN035=

USA.gov is the U.S. government's official web portal to all federal, state and local government web resources and services.